TRINITY LAKE (CLE)

Elevation: 2370' · TRINITY R basin · Operator: US Bureau of Reclamation

Provisional data, subject to change.
Query executed Tuesday at 8:43:47   clock

Select a sensor type for a plot of data.
Note: Reservoir Flows are daily averages.

Earlier

Date RES ELE    STORAGE    RES CHG    OUTFLOW    INFLOW    EVAP    FNF    RIV REL    PPT INC    SPILL    DIS PWR   
 FEET   AF   AF   CFS   CFS   CFS   CFS   CFS   INCHES   CFS   CFS  
07/06/2015 2244.67 909984 -3415 1732 96 86 96 0 0.00 0 1732
07/07/2015 2244.23 906323 -3661 1858 71 59 71 0 0.00 0 1858
07/08/2015 2243.87 903336 -2987 1734 311 83 311 0 0.00 0 1734
07/09/2015 2243.63 901352 -- 1624 746 122 303 e 0 1.84 0 1624
07/10/2015 2243.19 897715 -3637 1683 -141 10 302 e 0 0.10 0 1683
07/11/2015 2242.82 894667 -3048 1664 173 46 173 0 0.00 0 1664
07/12/2015 2242.49 891957 -- 1463 153 56 153 0 0.00 0 1463
07/13/2015 2242.09 888672 -3285 1698 90 48 145 e 0 0.00 0 1698
07/14/2015 2241.72 885649 -3023 1655 201 70 145 e 0 0.00 0 1655
07/15/2015 2241.35 882630 -3019 1706 254 70 254 0 0.00 0 1706
07/16/2015 2240.96 879451 -3179 1718 180 65 180 0 0.00 0 1718
07/17/2015 2240.54 876047 -3404 1754 110 72 110 0 0.00 0 1754
07/18/2015 2240.14 872806 -3241 1727 176 83 176 0 0.00 0 1727
07/19/2015 2239.71 869336 -3470 1759 102 92 102 0 0.00 0 1759
07/20/2015 2239.29 865953 -3383 1762 129 73 129 0 0.00 0 1762
07/21/2015 2238.90 862818 -3135 1679 171 73 171 0 0.00 0 1679
07/22/2015 2238.44 859137 -3681 1864 72 64 72 161 0.00 0 1703
07/23/2015 2237.95 855218 -3919 1959 56 73 32 e 185 0.00 0 1774
07/24/2015 2237.46 851322 -3896 1818 -83 63 32 e 204 0.00 0 1614
07/25/2015 2236.98 847507 -3815 1956 108 75 32 e 185 0.00 0 1771
07/26/2015 2236.47 843477 -4030 1906 -49 77 32 e 244 0.00 0 1662
07/27/2015 2236.01 839843 -3634 1910 157 79 157 123 0.00 0 1787
07/28/2015 2235.54 836153 -3690 1958 179 81 179 187 0.00 0 1771
07/29/2015 2235.07 832463 -3690 1949 167 78 167 187 0.00 0 1762
07/30/2015 2234.60 828793 -3670 1911 139 78 139 200 0.00 0 1711
07/31/2015 2234.11 824970 -3823 1996 122 53 -- 187 0.00 0 1809
08/01/2015 2233.62 821167 -3803 1972 121 66 -- 203 0.00 0 1769
08/02/2015 2233.11 817214 -3953 2057 146 82 -- 305 0.00 0 1752
08/03/2015 2232.55 812895 -4319 2179 38 36 -- 486 0.00 0 1693
08/04/2015 -- -- -- -- -- -- -- -- -- -- --

Later | Latest

Warning! This data is preliminary and subject to revision.

Show CLE Map | Plot CLE Data | 1 Month CLE Data | Real-Time CLE Data | CLE Info